createdAt,value
2019-04-01T00:02:04.409Z,10.10
2019-04-01T00:04:32.032Z,10.20
2019-04-01T00:06:59.537Z,10.20
2019-04-01T00:09:27.053Z,10.10
2019-04-01T00:11:56.386Z,10.20
2019-04-01T00:14:23.874Z,10.20
2019-04-01T00:16:51.365Z,10.20
2019-04-01T00:19:18.860Z,10.10
2019-04-01T00:21:46.313Z,10.10
2019-04-01T00:24:13.850Z,10.10
2019-04-01T00:26:41.308Z,10.00
2019-04-01T00:29:08.774Z,10.00
2019-04-01T00:31:36.185Z,9.90
2019-04-01T00:34:03.678Z,9.90
2019-04-01T00:36:31.182Z,9.90
2019-04-01T00:38:59.003Z,9.80
2019-04-01T00:41:26.490Z,9.80
2019-04-01T00:43:55.697Z,9.70
2019-04-01T00:46:23.447Z,9.60
2019-04-01T00:48:51.100Z,9.50
2019-04-01T00:51:18.615Z,9.50
2019-04-01T00:53:46.209Z,9.40
2019-04-01T00:56:13.665Z,9.40
2019-04-01T00:58:41.154Z,9.40
2019-04-01T01:01:08.642Z,9.20
2019-04-01T01:03:36.106Z,9.20
2019-04-01T01:06:03.535Z,9.10
2019-04-01T01:08:30.989Z,9.10
2019-04-01T01:10:58.583Z,9.00
2019-04-01T01:13:26.033Z,9.00
2019-04-01T01:15:53.450Z,8.90
2019-04-01T01:18:21.049Z,8.80
2019-04-01T01:20:48.551Z,8.80
2019-04-01T01:23:16.089Z,8.80
2019-04-01T01:25:43.595Z,8.80
2019-04-01T01:28:11.206Z,8.80
2019-04-01T01:30:38.695Z,8.80
2019-04-01T01:33:06.190Z,8.80
2019-04-01T01:35:33.698Z,8.70
2019-04-01T01:38:01.249Z,8.70
2019-04-01T01:40:28.789Z,8.70
2019-04-01T01:42:56.229Z,8.60
2019-04-01T01:45:23.694Z,8.60
2019-04-01T01:47:51.133Z,8.60
2019-04-01T01:50:18.608Z,8.40
2019-04-01T01:52:46.066Z,8.50
2019-04-01T01:55:13.546Z,8.40
2019-04-01T01:57:41.014Z,8.40
2019-04-01T02:00:09.382Z,8.40
2019-04-01T02:02:37.190Z,8.40
2019-04-01T02:05:04.809Z,8.40
2019-04-01T02:07:32.462Z,8.40
2019-04-01T02:09:59.903Z,8.30
2019-04-01T02:12:27.546Z,8.20
2019-04-01T02:14:55.958Z,8.20
2019-04-01T02:17:23.499Z,8.20
2019-04-01T02:19:51.058Z,8.10
2019-04-01T02:22:18.528Z,8.00
2019-04-01T02:24:45.937Z,7.90
2019-04-01T02:27:13.397Z,7.90
2019-04-01T02:29:40.886Z,7.80
2019-04-01T02:32:08.435Z,7.80
2019-04-01T02:34:35.872Z,7.80
2019-04-01T02:37:03.497Z,7.80
2019-04-01T02:39:31.030Z,7.70
2019-04-01T02:41:58.901Z,7.70
2019-04-01T02:44:26.676Z,7.60
2019-04-01T02:46:54.139Z,7.60
2019-04-01T02:49:21.584Z,7.50
2019-04-01T02:51:49.110Z,7.40
2019-04-01T02:54:16.722Z,7.30
2019-04-01T02:56:44.198Z,7.20
2019-04-01T02:59:11.768Z,7.10
2019-04-01T03:01:39.299Z,7.10
2019-04-01T03:04:06.734Z,7.00
2019-04-01T03:06:34.181Z,7.00
2019-04-01T03:09:01.614Z,6.90
2019-04-01T03:11:30.058Z,6.90
2019-04-01T03:13:57.614Z,6.80
2019-04-01T03:16:25.090Z,6.80
2019-04-01T03:18:52.678Z,6.80
2019-04-01T03:21:20.143Z,6.70
2019-04-01T03:23:47.616Z,6.70
2019-04-01T03:26:15.131Z,6.70
2019-04-01T03:28:42.640Z,6.70
2019-04-01T03:31:10.154Z,6.80
2019-04-01T03:33:37.776Z,6.80
2019-04-01T03:36:05.422Z,6.80
2019-04-01T03:38:32.995Z,6.80
2019-04-01T03:41:01.582Z,6.80
2019-04-01T03:43:29.078Z,6.80
2019-04-01T03:45:56.552Z,6.80
2019-04-01T03:48:25.415Z,6.80
2019-04-01T03:50:52.860Z,6.80
2019-04-01T03:53:20.459Z,6.70
2019-04-01T03:55:48.035Z,6.80
2019-04-01T03:58:15.499Z,6.80
2019-04-01T04:00:42.953Z,6.70
2019-04-01T04:03:10.809Z,6.70
2019-04-01T04:05:38.300Z,6.70
2019-04-01T04:08:06.156Z,6.70
2019-04-01T04:10:33.732Z,6.70
2019-04-01T04:13:01.373Z,6.70
2019-04-01T04:15:28.954Z,6.60
2019-04-01T04:17:56.382Z,6.70
2019-04-01T04:20:23.892Z,6.60
2019-04-01T04:22:51.484Z,6.60
2019-04-01T04:25:18.936Z,6.60
2019-04-01T04:27:46.387Z,6.60
2019-04-01T04:30:17.907Z,6.60
2019-04-01T04:32:45.465Z,6.60
2019-04-01T04:35:12.939Z,6.60
2019-04-01T04:37:40.381Z,6.50
2019-04-01T04:40:08.201Z,6.50
2019-04-01T04:42:35.766Z,6.50
2019-04-01T04:45:03.745Z,6.50
2019-04-01T04:47:31.295Z,6.40
2019-04-01T04:49:58.763Z,6.40
2019-04-01T04:52:26.262Z,6.40
2019-04-01T04:54:53.731Z,6.30
2019-04-01T04:57:21.328Z,6.30
2019-04-01T04:59:48.852Z,6.30
2019-04-01T05:02:16.310Z,6.30
2019-04-01T05:04:43.767Z,6.30
2019-04-01T05:07:11.249Z,6.30
2019-04-01T05:09:38.774Z,6.30
2019-04-01T05:12:06.393Z,6.30
2019-04-01T05:14:34.034Z,6.30
2019-04-01T05:17:01.522Z,6.30
2019-04-01T05:19:29.028Z,6.30
2019-04-01T05:21:57.597Z,6.30
2019-04-01T05:24:26.007Z,6.30
2019-04-01T05:26:55.175Z,6.30
2019-04-01T05:29:24.796Z,6.20
2019-04-01T05:31:54.185Z,6.30
2019-04-01T05:34:23.545Z,6.30
2019-04-01T05:36:51.019Z,6.30
2019-04-01T05:39:19.229Z,6.30
2019-04-01T05:41:46.645Z,6.50
2019-04-01T05:44:14.198Z,6.50
2019-04-01T05:46:41.655Z,6.60
2019-04-01T05:49:09.473Z,6.70
2019-04-01T05:51:36.941Z,6.70
2019-04-01T05:54:04.694Z,6.80
2019-04-01T05:56:34.289Z,6.90
2019-04-01T05:59:02.913Z,7.00
2019-04-01T06:01:35.630Z,7.10
2019-04-01T06:04:03.551Z,7.20
2019-04-01T06:06:31.033Z,7.30
2019-04-01T06:08:58.619Z,7.40
2019-04-01T06:11:26.474Z,7.60
2019-04-01T06:13:54.885Z,7.70
2019-04-01T06:16:22.754Z,8.00
2019-04-01T06:18:50.310Z,8.20
2019-04-01T06:21:17.931Z,8.60
2019-04-01T06:23:45.431Z,9.20
2019-04-01T06:26:13.245Z,10.00
2019-04-01T06:28:40.889Z,10.50
2019-04-01T06:31:10.222Z,11.10
2019-04-01T06:33:37.800Z,11.60
2019-04-01T06:36:05.399Z,12.20
2019-04-01T06:38:32.924Z,12.80
2019-04-01T06:41:00.439Z,13.00
2019-04-01T06:43:27.950Z,13.40
2019-04-01T06:45:55.497Z,13.80
2019-04-01T06:48:23.220Z,14.00
2019-04-01T06:50:51.285Z,14.10
2019-04-01T06:53:18.954Z,14.50
2019-04-01T06:55:46.458Z,14.80
2019-04-01T06:58:14.278Z,15.30
2019-04-01T07:00:41.862Z,15.50
2019-04-01T07:03:09.301Z,15.90
2019-04-01T07:05:36.839Z,16.40
2019-04-01T07:08:04.543Z,16.90
2019-04-01T07:10:32.253Z,17.50
2019-04-01T07:13:00.425Z,17.80
2019-04-01T07:15:28.051Z,18.20
2019-04-01T07:17:55.959Z,18.30
2019-04-01T07:20:23.424Z,18.60
2019-04-01T07:22:50.873Z,18.90
2019-04-01T07:25:18.442Z,19.00
2019-04-01T07:27:45.942Z,19.50
2019-04-01T07:30:14.242Z,20.00
2019-04-01T07:32:42.390Z,20.20
2019-04-01T07:35:09.953Z,20.90
2019-04-01T07:37:37.453Z,21.30
2019-04-01T07:40:05.496Z,22.00
2019-04-01T07:42:33.002Z,22.30
2019-04-01T07:45:00.474Z,22.70
2019-04-01T07:47:27.996Z,22.50
2019-04-01T07:49:55.426Z,22.90
2019-04-01T07:52:22.955Z,23.10
2019-04-01T07:54:50.396Z,23.80
2019-04-01T07:57:18.033Z,24.10
2019-04-01T07:59:45.637Z,24.40
2019-04-01T08:02:13.652Z,24.50
2019-04-01T08:04:41.064Z,25.10
2019-04-01T08:07:08.575Z,25.00
2019-04-01T08:09:36.007Z,24.80
2019-04-01T08:12:03.644Z,24.90
2019-04-01T08:14:31.182Z,24.80
2019-04-01T08:16:58.840Z,25.20
2019-04-01T08:19:26.303Z,25.60
2019-04-01T08:21:53.778Z,26.10
2019-04-01T08:24:21.246Z,26.20
2019-04-01T08:26:48.717Z,26.50
2019-04-01T08:29:29.397Z,27.20
2019-04-01T08:31:45.598Z,27.80
2019-04-01T08:34:13.106Z,27.70
2019-04-01T08:36:53.155Z,27.60
2019-04-01T08:39:20.609Z,27.30
2019-04-01T08:41:48.138Z,26.80
2019-04-01T08:44:16.692Z,27.00
2019-04-01T08:46:44.125Z,27.80
2019-04-01T08:49:11.701Z,27.80
2019-04-01T08:51:39.206Z,28.00
2019-04-01T08:54:06.917Z,28.30
2019-04-01T08:56:39.886Z,28.70
2019-04-01T08:59:07.680Z,28.70
2019-04-01T09:01:35.728Z,28.70
2019-04-01T09:04:03.560Z,28.70
2019-04-01T09:06:31.458Z,29.10
2019-04-01T09:08:59.971Z,29.30
2019-04-01T09:11:27.945Z,29.30
2019-04-01T09:13:56.813Z,29.60
2019-04-01T09:16:24.695Z,29.20
2019-04-01T09:18:52.239Z,29.00
2019-04-01T09:21:19.658Z,28.80
2019-04-01T09:23:47.369Z,28.60
2019-04-01T09:26:15.009Z,29.10
2019-04-01T09:28:42.464Z,29.90
2019-04-01T09:31:10.048Z,30.30
2019-04-01T09:33:37.595Z,31.00
2019-04-01T09:36:05.007Z,31.20
2019-04-01T09:38:32.553Z,30.90
2019-04-01T09:41:01.111Z,30.60
2019-04-01T09:43:28.575Z,30.70
2019-04-01T09:45:56.059Z,31.40
2019-04-01T09:48:23.919Z,32.30
2019-04-01T09:50:51.553Z,32.10
2019-04-01T09:53:19.133Z,31.10
2019-04-01T09:55:46.955Z,30.50
2019-04-01T09:58:14.522Z,31.00
2019-04-01T10:00:42.083Z,31.40
2019-04-01T10:03:09.759Z,30.70
2019-04-01T10:05:37.471Z,30.90
2019-04-01T10:08:05.264Z,31.60
2019-04-01T10:10:33.111Z,32.70
2019-04-01T10:13:01.007Z,33.20
2019-04-01T10:15:28.864Z,33.70
2019-04-01T10:17:56.462Z,34.40
2019-04-01T10:20:24.196Z,35.40
2019-04-01T10:22:51.877Z,36.00
2019-04-01T10:25:19.776Z,37.10
2019-04-01T10:27:47.687Z,37.60
2019-04-01T10:30:15.925Z,37.90
2019-04-01T10:32:43.618Z,37.30
2019-04-01T10:35:11.309Z,36.70
2019-04-01T10:37:38.858Z,37.00
2019-04-01T10:40:07.356Z,37.60
2019-04-01T10:42:35.046Z,37.80
2019-04-01T10:45:03.238Z,38.70
2019-04-01T10:47:30.850Z,38.80
2019-04-01T10:49:58.463Z,39.00
2019-04-01T10:52:26.254Z,39.10
2019-04-01T10:54:54.093Z,38.60
2019-04-01T10:57:21.822Z,38.40
2019-04-01T10:59:49.525Z,38.70
2019-04-01T11:02:18.554Z,39.00
2019-04-01T11:04:46.491Z,39.10
2019-04-01T11:07:14.437Z,38.50
2019-04-01T11:09:42.150Z,38.50
2019-04-01T11:12:09.816Z,38.90
2019-04-01T11:14:37.575Z,39.30
2019-04-01T11:17:05.331Z,39.30
2019-04-01T11:19:33.269Z,39.20
2019-04-01T11:22:01.279Z,39.50
2019-04-01T11:24:29.163Z,39.00
2019-04-01T11:26:56.838Z,38.40
2019-04-01T11:29:25.776Z,38.20
2019-04-01T11:31:53.669Z,37.90
2019-04-01T11:34:23.142Z,37.80
2019-04-01T11:36:50.653Z,37.70
2019-04-01T11:39:18.243Z,37.90
2019-04-01T11:41:45.926Z,37.80
2019-04-01T11:44:13.551Z,38.50
2019-04-01T11:46:41.146Z,39.00
2019-04-01T11:49:09.444Z,39.00
2019-04-01T11:51:40.053Z,38.30
2019-04-01T11:54:08.269Z,38.40
2019-04-01T11:56:36.250Z,38.10
2019-04-01T11:59:03.744Z,37.60
2019-04-01T12:01:31.250Z,37.60
2019-04-01T12:03:58.695Z,37.40
2019-04-01T12:06:26.124Z,37.10
2019-04-01T12:08:53.619Z,37.70
2019-04-01T12:11:21.399Z,37.60
2019-04-01T12:13:48.851Z,36.90
2019-04-01T12:16:16.289Z,35.60
2019-04-01T12:18:44.835Z,34.30
2019-04-01T12:21:12.746Z,33.20
2019-04-01T12:23:40.250Z,31.90
2019-04-01T12:26:15.062Z,32.20
2019-04-01T12:28:37.051Z,31.20
2019-04-01T12:31:04.535Z,31.80
2019-04-01T12:33:32.191Z,31.90
2019-04-01T12:35:59.798Z,31.50
2019-04-01T12:38:27.284Z,32.30
2019-04-01T12:40:54.822Z,32.60
2019-04-01T12:43:23.647Z,32.20
2019-04-01T12:45:51.429Z,31.80
2019-04-01T12:48:18.892Z,30.90
2019-04-01T12:50:46.482Z,29.80
2019-04-01T12:53:13.977Z,29.40
2019-04-01T12:55:44.864Z,28.60
2019-04-01T12:58:11.063Z,27.30
2019-04-01T13:00:38.626Z,27.30
2019-04-01T13:03:06.179Z,28.00
2019-04-01T13:05:33.637Z,29.40
2019-04-01T13:08:01.282Z,29.30
2019-04-01T13:10:28.806Z,28.00
2019-04-01T13:12:56.300Z,27.50
2019-04-01T13:15:24.318Z,26.50
2019-04-01T13:17:51.774Z,26.60
2019-04-01T13:20:19.235Z,25.90
2019-04-01T13:22:46.727Z,25.60
2019-04-01T13:25:14.249Z,25.50
2019-04-01T13:27:41.755Z,26.70
2019-04-01T13:30:12.496Z,28.50
2019-04-01T13:32:40.038Z,28.70
2019-04-01T13:35:07.501Z,28.40
2019-04-01T13:37:35.065Z,28.30
2019-04-01T13:40:03.049Z,28.20
2019-04-01T13:42:31.942Z,27.50
2019-04-01T13:45:01.808Z,26.50
2019-04-01T13:47:28.776Z,25.60
2019-04-01T13:49:56.328Z,25.10
2019-04-01T13:52:23.883Z,24.10
2019-04-01T13:54:51.586Z,23.90
2019-04-01T13:57:19.062Z,23.60
2019-04-01T13:59:49.574Z,22.70
2019-04-01T14:02:15.970Z,22.50
2019-04-01T14:04:43.546Z,22.40
2019-04-01T14:07:12.042Z,22.20
2019-04-01T14:09:39.534Z,22.00
2019-04-01T14:12:07.073Z,21.70
2019-04-01T14:14:34.514Z,21.40
2019-04-01T14:17:02.050Z,20.90
2019-04-01T14:19:29.513Z,20.80
2019-04-01T14:21:56.940Z,20.90
2019-04-01T14:24:24.780Z,21.90
2019-04-01T14:26:52.403Z,22.60
2019-04-01T14:29:19.872Z,22.80
2019-04-01T14:31:47.328Z,22.80
2019-04-01T14:34:22.960Z,22.60
2019-04-01T14:36:44.200Z,22.50
2019-04-01T14:39:11.746Z,22.90
2019-04-01T14:41:39.281Z,22.60
2019-04-01T14:44:06.809Z,22.40
2019-04-01T14:46:34.304Z,22.10
2019-04-01T14:49:02.885Z,21.80
2019-04-01T14:51:31.063Z,22.20
2019-04-01T14:53:58.560Z,22.80
2019-04-01T14:56:28.661Z,23.50
2019-04-01T14:58:56.251Z,23.70
2019-04-01T15:01:23.719Z,24.00
2019-04-01T15:03:51.194Z,24.50
2019-04-01T15:06:18.643Z,24.20
2019-04-01T15:08:46.096Z,23.50
2019-04-01T15:11:13.582Z,23.00
2019-04-01T15:13:41.042Z,22.70
2019-04-01T15:16:08.501Z,22.50
2019-04-01T15:18:36.061Z,22.10
2019-04-01T15:21:03.605Z,22.20
2019-04-01T15:23:31.123Z,22.20
2019-04-01T15:25:58.873Z,22.10
2019-04-01T15:28:26.513Z,22.20
2019-04-01T15:30:53.996Z,22.70
2019-04-01T15:33:21.593Z,23.10
2019-04-01T15:35:49.122Z,23.50
2019-04-01T15:38:16.759Z,23.70
2019-04-01T15:40:44.349Z,23.80
2019-04-01T15:43:12.122Z,23.60
2019-04-01T15:45:40.135Z,23.70
2019-04-01T15:48:08.071Z,23.80
2019-04-01T15:50:35.672Z,23.80
2019-04-01T15:53:03.218Z,23.50
2019-04-01T15:55:31.741Z,23.20
2019-04-01T15:57:59.762Z,22.60
2019-04-01T16:00:27.234Z,22.00
2019-04-01T16:02:54.748Z,21.90
2019-04-01T16:05:22.235Z,21.40
2019-04-01T16:07:49.811Z,21.10
2019-04-01T16:10:17.415Z,20.80
2019-04-01T16:12:45.280Z,20.70
2019-04-01T16:15:13.172Z,20.50
2019-04-01T16:17:40.740Z,20.20
2019-04-01T16:20:08.271Z,20.10
2019-04-01T16:22:38.667Z,20.30
2019-04-01T16:25:07.055Z,20.50
2019-04-01T16:27:35.392Z,20.40
2019-04-01T16:30:04.170Z,20.30
2019-04-01T16:32:31.810Z,20.20
2019-04-01T16:34:59.321Z,20.10
2019-04-01T16:37:29.237Z,19.80
2019-04-01T16:39:56.690Z,19.40
2019-04-01T16:42:24.092Z,19.20
2019-04-01T16:44:54.046Z,18.90
2019-04-01T16:47:20.900Z,18.70
2019-04-01T16:49:48.429Z,18.60
2019-04-01T16:52:15.975Z,18.50
2019-04-01T16:54:55.353Z,18.40
2019-04-01T16:57:24.957Z,18.30
2019-04-01T16:59:52.429Z,18.10
2019-04-01T17:02:21.125Z,18.00
2019-04-01T17:04:49.006Z,17.80
2019-04-01T17:07:19.413Z,17.70
2019-04-01T17:09:47.119Z,17.50
2019-04-01T17:12:14.734Z,17.40
2019-04-01T17:14:42.256Z,17.30
2019-04-01T17:17:10.849Z,17.20
2019-04-01T17:19:38.845Z,17.10
2019-04-01T17:22:06.434Z,17.10
2019-04-01T17:24:34.125Z,17.00
2019-04-01T17:27:11.925Z,17.00
2019-04-01T17:29:41.373Z,16.90
2019-04-01T17:32:08.921Z,16.80
2019-04-01T17:34:36.429Z,16.70
2019-04-01T17:37:04.123Z,16.60
2019-04-01T17:39:31.599Z,16.50
2019-04-01T17:41:59.177Z,16.40
2019-04-01T17:44:26.931Z,16.30
2019-04-01T17:46:54.586Z,16.30
2019-04-01T17:49:22.029Z,16.20
2019-04-01T17:51:49.518Z,16.10
2019-04-01T17:54:19.834Z,15.90
2019-04-01T17:56:47.471Z,15.70
2019-04-01T17:59:15.446Z,15.70
2019-04-01T18:01:44.662Z,15.60
2019-04-01T18:04:12.631Z,15.40
2019-04-01T18:06:40.121Z,15.30
2019-04-01T18:09:07.948Z,15.10
2019-04-01T18:11:36.374Z,15.10
2019-04-01T18:14:03.855Z,15.00
2019-04-01T18:16:31.548Z,15.00
2019-04-01T18:18:59.129Z,15.00
2019-04-01T18:21:26.617Z,14.90
2019-04-01T18:23:54.869Z,14.80
2019-04-01T18:26:22.549Z,14.70
2019-04-01T18:28:50.016Z,14.60
2019-04-01T18:31:17.521Z,14.60
2019-04-01T18:33:55.703Z,14.50
2019-04-01T18:36:14.484Z,14.40
2019-04-01T18:38:41.988Z,14.40
2019-04-01T18:41:09.582Z,14.40
2019-04-01T18:43:37.078Z,14.30
2019-04-01T18:46:04.499Z,14.30
2019-04-01T18:48:32.024Z,14.20
2019-04-01T18:50:59.534Z,14.00
2019-04-01T18:53:28.628Z,14.00
2019-04-01T18:55:56.911Z,13.90
2019-04-01T18:58:25.176Z,13.80
2019-04-01T19:00:53.105Z,13.70
2019-04-01T19:03:23.872Z,13.60
2019-04-01T19:05:50.227Z,13.60
2019-04-01T19:08:17.863Z,13.50
2019-04-01T19:10:45.442Z,13.40
2019-04-01T19:13:13.277Z,13.40
2019-04-01T19:15:41.973Z,13.30
2019-04-01T19:18:11.247Z,13.20
2019-04-01T19:20:40.088Z,13.10
2019-04-01T19:23:09.885Z,13.10
2019-04-01T19:25:37.449Z,13.00
2019-04-01T19:28:05.205Z,12.90
2019-04-01T19:30:32.818Z,12.90
2019-04-01T19:33:00.361Z,12.90
2019-04-01T19:35:27.987Z,12.80
2019-04-01T19:37:56.681Z,12.80
2019-04-01T19:40:24.394Z,12.80
2019-04-01T19:42:52.152Z,12.70
2019-04-01T19:45:19.955Z,12.70
2019-04-01T19:47:47.525Z,12.60
2019-04-01T19:50:27.986Z,12.50
2019-04-01T19:52:55.741Z,12.40
2019-04-01T19:55:23.418Z,12.30
2019-04-01T19:57:51.077Z,12.20
2019-04-01T20:00:27.712Z,12.20
2019-04-01T20:02:49.629Z,12.20
2019-04-01T20:05:17.269Z,12.10
2019-04-01T20:07:44.750Z,12.10
2019-04-01T20:10:12.677Z,11.90
2019-04-01T20:12:41.188Z,11.90
2019-04-01T20:15:10.806Z,11.80
2019-04-01T20:17:39.109Z,11.80
2019-04-01T20:20:07.411Z,11.70
2019-04-01T20:22:34.998Z,11.70
2019-04-01T20:25:02.785Z,11.60
2019-04-01T20:27:30.378Z,11.60
2019-04-01T20:29:57.883Z,11.50
2019-04-01T20:32:25.393Z,11.50
2019-04-01T20:34:57.207Z,11.40
2019-04-01T20:37:22.635Z,11.40
2019-04-01T20:39:50.355Z,11.30
2019-04-01T20:42:17.978Z,11.30
2019-04-01T20:44:45.448Z,11.20
2019-04-01T20:47:12.979Z,11.20
2019-04-01T20:49:40.508Z,11.20
2019-04-01T20:52:08.093Z,11.10
2019-04-01T20:54:35.686Z,11.10
2019-04-01T20:57:05.108Z,11.00
2019-04-01T20:59:32.841Z,11.00
2019-04-01T21:02:00.376Z,11.00
2019-04-01T21:04:27.963Z,11.00
2019-04-01T21:06:55.597Z,11.00
2019-04-01T21:09:23.064Z,11.00
2019-04-01T21:11:50.553Z,11.00
2019-04-01T21:14:18.077Z,10.90
2019-04-01T21:16:45.663Z,10.90
2019-04-01T21:19:13.337Z,10.90
2019-04-01T21:21:41.000Z,10.90
2019-04-01T21:24:10.043Z,11.00
2019-04-01T21:26:37.586Z,11.10
2019-04-01T21:29:05.058Z,11.10
2019-04-01T21:31:32.584Z,11.10
2019-04-01T21:34:00.275Z,11.00
2019-04-01T21:36:28.804Z,10.90
2019-04-01T21:38:56.429Z,11.00
2019-04-01T21:41:25.229Z,10.90
2019-04-01T21:43:52.979Z,11.00
2019-04-01T21:46:20.505Z,11.10
2019-04-01T21:48:48.120Z,11.00
2019-04-01T21:51:15.611Z,10.90
2019-04-01T21:53:43.108Z,11.00
2019-04-01T21:56:10.978Z,11.00
2019-04-01T21:58:38.513Z,11.10
2019-04-01T22:01:06.173Z,11.20
2019-04-01T22:03:33.999Z,11.30
2019-04-01T22:06:01.861Z,11.30
2019-04-01T22:08:30.045Z,11.30
2019-04-01T22:10:57.786Z,11.40
2019-04-01T22:13:27.227Z,11.30
2019-04-01T22:15:54.919Z,11.40
2019-04-01T22:18:22.395Z,11.40
2019-04-01T22:20:50.140Z,11.40
2019-04-01T22:23:17.638Z,11.40
2019-04-01T22:25:45.183Z,11.40
2019-04-01T22:28:12.760Z,11.40
2019-04-01T22:30:40.300Z,11.40
2019-04-01T22:33:07.745Z,11.30
2019-04-01T22:35:39.024Z,11.30
2019-04-01T22:38:06.227Z,11.20
2019-04-01T22:40:34.183Z,11.20
2019-04-01T22:43:02.364Z,11.20
2019-04-01T22:45:30.350Z,11.20
2019-04-01T22:47:58.851Z,11.10
2019-04-01T22:50:26.696Z,11.10
2019-04-01T22:52:54.265Z,11.00
2019-04-01T22:55:22.028Z,11.00
2019-04-01T22:57:49.478Z,10.90
2019-04-01T23:00:18.550Z,10.90
2019-04-01T23:02:46.885Z,10.90
2019-04-01T23:05:14.737Z,10.90
2019-04-01T23:07:51.496Z,10.80
2019-04-01T23:10:19.010Z,10.90
2019-04-01T23:12:47.030Z,10.80
2019-04-01T23:15:15.365Z,10.80
2019-04-01T23:17:46.761Z,10.70
2019-04-01T23:20:15.419Z,10.70
2019-04-01T23:22:43.187Z,10.60
2019-04-01T23:25:13.627Z,10.60
2019-04-01T23:27:41.085Z,10.60
2019-04-01T23:30:10.463Z,10.50
2019-04-01T23:32:37.942Z,10.50
2019-04-01T23:35:05.638Z,10.50
2019-04-01T23:37:33.105Z,10.40
2019-04-01T23:40:00.539Z,10.40
2019-04-01T23:42:28.207Z,10.40
2019-04-01T23:44:56.246Z,10.30
2019-04-01T23:47:23.842Z,10.30
2019-04-01T23:49:51.449Z,10.20
2019-04-01T23:52:19.348Z,10.20
2019-04-01T23:54:46.836Z,10.20
2019-04-01T23:57:14.414Z,10.10
2019-04-01T23:59:43.041Z,10.00
